sensor_id;sensor_type;location;lat;lon;timestamp;temperature;humidity
37530;DHT22;23374;52.758;6.872;2024-02-26T00:01:56;5.20;99.90
37530;DHT22;23374;52.758;6.872;2024-02-26T00:04:17;5.20;99.90
37530;DHT22;23374;52.758;6.872;2024-02-26T00:06:39;5.10;99.90
37530;DHT22;23374;52.758;6.872;2024-02-26T00:09:03;5.10;99.90
37530;DHT22;23374;52.758;6.872;2024-02-26T00:11:26;5.10;99.90
37530;DHT22;23374;52.758;6.872;2024-02-26T00:13:47;5.10;99.90
37530;DHT22;23374;52.758;6.872;2024-02-26T00:16:07;5.10;99.90
37530;DHT22;23374;52.758;6.872;2024-02-26T00:18:28;5.10;99.90
37530;DHT22;23374;52.758;6.872;2024-02-26T00:20:48;5.10;99.90
37530;DHT22;23374;52.758;6.872;2024-02-26T00:23:09;5.10;99.90
37530;DHT22;23374;52.758;6.872;2024-02-26T00:25:29;5.00;99.90
37530;DHT22;23374;52.758;6.872;2024-02-26T00:27:49;5.00;99.90
37530;DHT22;23374;52.758;6.872;2024-02-26T00:30:10;5.00;99.90
37530;DHT22;23374;52.758;6.872;2024-02-26T00:32:30;5.00;99.90
37530;DHT22;23374;52.758;6.872;2024-02-26T00:34:51;4.90;99.90
37530;DHT22;23374;52.758;6.872;2024-02-26T00:37:11;4.90;99.90
37530;DHT22;23374;52.758;6.872;2024-02-26T00:39:31;4.90;99.90
37530;DHT22;23374;52.758;6.872;2024-02-26T00:41:52;4.80;99.90
37530;DHT22;23374;52.758;6.872;2024-02-26T00:44:13;4.80;99.90
37530;DHT22;23374;52.758;6.872;2024-02-26T00:46:33;4.80;99.90
37530;DHT22;23374;52.758;6.872;2024-02-26T00:48:53;4.70;1.00
37530;DHT22;23374;52.758;6.872;2024-02-26T00:51:14;4.70;1.00
37530;DHT22;23374;52.758;6.872;2024-02-26T00:53:35;4.70;1.00
37530;DHT22;23374;52.758;6.872;2024-02-26T00:55:56;4.70;1.00
37530;DHT22;23374;52.758;6.872;2024-02-26T00:58:16;4.70;1.00
37530;DHT22;23374;52.758;6.872;2024-02-26T01:00:36;4.70;1.00
37530;DHT22;23374;52.758;6.872;2024-02-26T01:02:57;4.70;1.00
37530;DHT22;23374;52.758;6.872;2024-02-26T01:05:19;4.70;1.00
37530;DHT22;23374;52.758;6.872;2024-02-26T01:07:40;4.70;1.00
37530;DHT22;23374;52.758;6.872;2024-02-26T01:10:01;4.70;1.00
37530;DHT22;23374;52.758;6.872;2024-02-26T01:12:23;4.70;1.00
37530;DHT22;23374;52.758;6.872;2024-02-26T01:14:43;4.70;1.00
37530;DHT22;23374;52.758;6.872;2024-02-26T01:17:04;4.70;1.00
37530;DHT22;23374;52.758;6.872;2024-02-26T01:19:24;4.70;1.00
37530;DHT22;23374;52.758;6.872;2024-02-26T01:21:44;4.70;1.00
37530;DHT22;23374;52.758;6.872;2024-02-26T01:24:05;4.70;1.00
37530;DHT22;23374;52.758;6.872;2024-02-26T01:26:26;4.70;1.00
37530;DHT22;23374;52.758;6.872;2024-02-26T01:28:46;4.70;1.00
37530;DHT22;23374;52.758;6.872;2024-02-26T01:31:06;4.70;1.00
37530;DHT22;23374;52.758;6.872;2024-02-26T01:33:29;4.70;1.00
37530;DHT22;23374;52.758;6.872;2024-02-26T01:35:49;4.60;1.00
37530;DHT22;23374;52.758;6.872;2024-02-26T01:38:09;4.60;1.00
37530;DHT22;23374;52.758;6.872;2024-02-26T01:40:30;4.60;1.00
37530;DHT22;23374;52.758;6.872;2024-02-26T01:42:52;4.60;1.00
37530;DHT22;23374;52.758;6.872;2024-02-26T01:45:16;4.60;1.00
37530;DHT22;23374;52.758;6.872;2024-02-26T01:49:14;4.60;1.00
37530;DHT22;23374;52.758;6.872;2024-02-26T01:51:35;4.60;1.00
37530;DHT22;23374;52.758;6.872;2024-02-26T01:53:57;4.60;1.00
37530;DHT22;23374;52.758;6.872;2024-02-26T01:56:19;4.50;1.00
37530;DHT22;23374;52.758;6.872;2024-02-26T01:58:41;4.50;1.00
37530;DHT22;23374;52.758;6.872;2024-02-26T02:01:01;4.50;1.00
37530;DHT22;23374;52.758;6.872;2024-02-26T02:03:23;4.40;1.00
37530;DHT22;23374;52.758;6.872;2024-02-26T02:05:45;4.40;1.00
37530;DHT22;23374;52.758;6.872;2024-02-26T02:08:06;4.40;1.00
37530;DHT22;23374;52.758;6.872;2024-02-26T02:10:27;4.40;1.00
37530;DHT22;23374;52.758;6.872;2024-02-26T02:12:48;4.40;1.00
37530;DHT22;23374;52.758;6.872;2024-02-26T02:15:08;4.40;1.00
37530;DHT22;23374;52.758;6.872;2024-02-26T02:17:29;4.30;1.00
37530;DHT22;23374;52.758;6.872;2024-02-26T02:19:49;4.30;1.00
37530;DHT22;23374;52.758;6.872;2024-02-26T02:22:09;4.30;1.00
37530;DHT22;23374;52.758;6.872;2024-02-26T02:24:29;4.30;1.00
37530;DHT22;23374;52.758;6.872;2024-02-26T02:26:49;4.30;1.00
37530;DHT22;23374;52.758;6.872;2024-02-26T02:29:12;4.30;1.00
37530;DHT22;23374;52.758;6.872;2024-02-26T02:31:33;4.30;1.00
37530;DHT22;23374;52.758;6.872;2024-02-26T02:33:53;4.30;33.20
37530;DHT22;23374;52.758;6.872;2024-02-26T02:36:14;4.30;32.00
37530;DHT22;23374;52.758;6.872;2024-02-26T02:38:35;4.30;99.90
37530;DHT22;23374;52.758;6.872;2024-02-26T02:40:55;4.30;99.90
37530;DHT22;23374;52.758;6.872;2024-02-26T02:43:16;4.30;92.60
37530;DHT22;23374;52.758;6.872;2024-02-26T02:45:36;4.30;99.90
37530;DHT22;23374;52.758;6.872;2024-02-26T02:49:19;4.30;99.90
37530;DHT22;23374;52.758;6.872;2024-02-26T02:51:39;4.30;99.90
37530;DHT22;23374;52.758;6.872;2024-02-26T02:53:59;4.30;16.10
37530;DHT22;23374;52.758;6.872;2024-02-26T02:56:19;4.30;1.00
37530;DHT22;23374;52.758;6.872;2024-02-26T02:58:40;4.30;1.00
37530;DHT22;23374;52.758;6.872;2024-02-26T03:01:00;4.30;17.90
37530;DHT22;23374;52.758;6.872;2024-02-26T03:03:21;4.30;1.00
37530;DHT22;23374;52.758;6.872;2024-02-26T03:05:44;4.30;1.00
37530;DHT22;23374;52.758;6.872;2024-02-26T03:08:05;4.30;6.00
37530;DHT22;23374;52.758;6.872;2024-02-26T03:10:25;4.30;41.30
37530;DHT22;23374;52.758;6.872;2024-02-26T03:12:46;4.30;19.90
37530;DHT22;23374;52.758;6.872;2024-02-26T03:15:07;4.30;34.40
37530;DHT22;23374;52.758;6.872;2024-02-26T03:17:27;4.30;49.90
37530;DHT22;23374;52.758;6.872;2024-02-26T03:19:48;4.30;80.30
37530;DHT22;23374;52.758;6.872;2024-02-26T03:22:13;4.30;70.50
37530;DHT22;23374;52.758;6.872;2024-02-26T03:24:34;4.30;85.90
37530;DHT22;23374;52.758;6.872;2024-02-26T03:26:54;4.30;99.90
37530;DHT22;23374;52.758;6.872;2024-02-26T03:29:15;4.30;99.90
37530;DHT22;23374;52.758;6.872;2024-02-26T03:31:35;4.30;99.90
37530;DHT22;23374;52.758;6.872;2024-02-26T03:33:55;4.30;99.90
37530;DHT22;23374;52.758;6.872;2024-02-26T03:36:16;4.40;99.90
37530;DHT22;23374;52.758;6.872;2024-02-26T03:38:37;4.30;99.90
37530;DHT22;23374;52.758;6.872;2024-02-26T03:40:57;4.40;99.90
37530;DHT22;23374;52.758;6.872;2024-02-26T03:43:18;4.40;99.90
37530;DHT22;23374;52.758;6.872;2024-02-26T03:45:39;4.30;99.90
37530;DHT22;23374;52.758;6.872;2024-02-26T03:47:59;4.30;99.90
37530;DHT22;23374;52.758;6.872;2024-02-26T03:50:20;4.30;99.90
37530;DHT22;23374;52.758;6.872;2024-02-26T03:52:40;4.30;99.90
37530;DHT22;23374;52.758;6.872;2024-02-26T03:55:00;4.30;99.90
37530;DHT22;23374;52.758;6.872;2024-02-26T03:57:20;4.30;99.90
37530;DHT22;23374;52.758;6.872;2024-02-26T03:59:40;4.30;99.90
37530;DHT22;23374;52.758;6.872;2024-02-26T04:02:01;4.30;99.90
37530;DHT22;23374;52.758;6.872;2024-02-26T04:04:22;4.30;99.90
37530;DHT22;23374;52.758;6.872;2024-02-26T04:06:46;4.30;99.90
37530;DHT22;23374;52.758;6.872;2024-02-26T04:09:06;4.30;99.90
37530;DHT22;23374;52.758;6.872;2024-02-26T04:11:27;4.30;99.90
37530;DHT22;23374;52.758;6.872;2024-02-26T04:13:48;4.30;99.90
37530;DHT22;23374;52.758;6.872;2024-02-26T04:16:12;4.30;99.90
37530;DHT22;23374;52.758;6.872;2024-02-26T04:18:33;4.30;99.90
37530;DHT22;23374;52.758;6.872;2024-02-26T04:20:53;4.30;1.00
37530;DHT22;23374;52.758;6.872;2024-02-26T04:23:14;4.30;1.00
37530;DHT22;23374;52.758;6.872;2024-02-26T04:25:34;4.30;1.00
37530;DHT22;23374;52.758;6.872;2024-02-26T04:27:55;4.30;1.00
37530;DHT22;23374;52.758;6.872;2024-02-26T04:30:15;4.30;1.00
37530;DHT22;23374;52.758;6.872;2024-02-26T04:32:37;4.20;1.00
37530;DHT22;23374;52.758;6.872;2024-02-26T04:34:57;4.30;1.00
37530;DHT22;23374;52.758;6.872;2024-02-26T04:37:17;4.30;1.00
37530;DHT22;23374;52.758;6.872;2024-02-26T04:39:38;4.30;1.00
37530;DHT22;23374;52.758;6.872;2024-02-26T04:41:58;4.30;1.00
37530;DHT22;23374;52.758;6.872;2024-02-26T04:44:19;4.30;1.00
37530;DHT22;23374;52.758;6.872;2024-02-26T04:46:39;4.30;1.00
37530;DHT22;23374;52.758;6.872;2024-02-26T04:49:00;4.30;1.00
37530;DHT22;23374;52.758;6.872;2024-02-26T04:51:20;4.30;1.00
37530;DHT22;23374;52.758;6.872;2024-02-26T04:53:41;4.30;1.00
37530;DHT22;23374;52.758;6.872;2024-02-26T04:56:01;4.30;1.00
37530;DHT22;23374;52.758;6.872;2024-02-26T04:58:22;4.30;1.00
37530;DHT22;23374;52.758;6.872;2024-02-26T05:00:42;4.40;1.00
37530;DHT22;23374;52.758;6.872;2024-02-26T05:03:02;4.40;1.00
37530;DHT22;23374;52.758;6.872;2024-02-26T05:05:22;4.40;1.00
37530;DHT22;23374;52.758;6.872;2024-02-26T05:07:43;4.40;1.00
37530;DHT22;23374;52.758;6.872;2024-02-26T05:10:05;4.40;1.00
37530;DHT22;23374;52.758;6.872;2024-02-26T05:12:26;4.40;1.00
37530;DHT22;23374;52.758;6.872;2024-02-26T05:14:47;4.40;4.90
37530;DHT22;23374;52.758;6.872;2024-02-26T05:17:07;4.40;6.50
37530;DHT22;23374;52.758;6.872;2024-02-26T05:19:27;4.40;25.30
37530;DHT22;23374;52.758;6.872;2024-02-26T05:21:48;4.40;43.40
37530;DHT22;23374;52.758;6.872;2024-02-26T05:24:10;4.40;71.10
37530;DHT22;23374;52.758;6.872;2024-02-26T05:26:30;4.40;56.80
37530;DHT22;23374;52.758;6.872;2024-02-26T05:28:50;4.50;62.80
37530;DHT22;23374;52.758;6.872;2024-02-26T05:31:13;4.50;65.20
37530;DHT22;23374;52.758;6.872;2024-02-26T05:33:34;4.50;95.30
37530;DHT22;23374;52.758;6.872;2024-02-26T05:35:54;4.50;99.90
37530;DHT22;23374;52.758;6.872;2024-02-26T05:39:59;4.50;99.90
37530;DHT22;23374;52.758;6.872;2024-02-26T05:42:19;4.50;99.90
37530;DHT22;23374;52.758;6.872;2024-02-26T05:44:40;4.50;37.20
37530;DHT22;23374;52.758;6.872;2024-02-26T05:47:00;4.50;71.10
37530;DHT22;23374;52.758;6.872;2024-02-26T05:49:21;4.60;83.80
37530;DHT22;23374;52.758;6.872;2024-02-26T05:51:42;4.60;18.80
37530;DHT22;23374;52.758;6.872;2024-02-26T05:54:02;4.60;1.00
37530;DHT22;23374;52.758;6.872;2024-02-26T05:56:22;4.50;1.00
37530;DHT22;23374;52.758;6.872;2024-02-26T05:58:43;4.60;1.00
37530;DHT22;23374;52.758;6.872;2024-02-26T06:01:03;4.60;1.00
37530;DHT22;23374;52.758;6.872;2024-02-26T06:03:24;4.60;1.00
37530;DHT22;23374;52.758;6.872;2024-02-26T06:05:44;4.60;1.00
37530;DHT22;23374;52.758;6.872;2024-02-26T06:08:06;4.60;1.00
37530;DHT22;23374;52.758;6.872;2024-02-26T06:10:27;4.60;1.00
37530;DHT22;23374;52.758;6.872;2024-02-26T06:12:47;4.60;1.00
37530;DHT22;23374;52.758;6.872;2024-02-26T06:15:09;4.60;99.90
37530;DHT22;23374;52.758;6.872;2024-02-26T06:17:30;4.60;99.90
37530;DHT22;23374;52.758;6.872;2024-02-26T06:19:50;4.60;99.90
37530;DHT22;23374;52.758;6.872;2024-02-26T06:22:11;4.60;99.90
37530;DHT22;23374;52.758;6.872;2024-02-26T06:24:31;4.50;99.90
37530;DHT22;23374;52.758;6.872;2024-02-26T06:26:51;4.60;99.90
37530;DHT22;23374;52.758;6.872;2024-02-26T06:29:12;4.60;99.90
37530;DHT22;23374;52.758;6.872;2024-02-26T06:31:32;4.50;99.90
37530;DHT22;23374;52.758;6.872;2024-02-26T06:33:54;4.50;99.90
37530;DHT22;23374;52.758;6.872;2024-02-26T06:36:18;4.50;99.90
37530;DHT22;23374;52.758;6.872;2024-02-26T06:38:39;4.60;99.90
37530;DHT22;23374;52.758;6.872;2024-02-26T06:40:59;4.50;99.90
37530;DHT22;23374;52.758;6.872;2024-02-26T06:43:20;4.50;99.90
37530;DHT22;23374;52.758;6.872;2024-02-26T06:45:40;4.50;99.90
37530;DHT22;23374;52.758;6.872;2024-02-26T06:48:00;4.50;99.90
37530;DHT22;23374;52.758;6.872;2024-02-26T06:50:20;4.50;99.90
37530;DHT22;23374;52.758;6.872;2024-02-26T06:52:44;4.50;99.90
37530;DHT22;23374;52.758;6.872;2024-02-26T06:55:07;4.50;99.90
37530;DHT22;23374;52.758;6.872;2024-02-26T06:57:28;4.60;99.90
37530;DHT22;23374;52.758;6.872;2024-02-26T06:59:49;4.60;99.90
37530;DHT22;23374;52.758;6.872;2024-02-26T07:02:09;4.50;99.90
37530;DHT22;23374;52.758;6.872;2024-02-26T07:04:29;4.50;99.90
37530;DHT22;23374;52.758;6.872;2024-02-26T07:06:52;4.50;99.90
37530;DHT22;23374;52.758;6.872;2024-02-26T07:09:12;4.60;99.90
37530;DHT22;23374;52.758;6.872;2024-02-26T07:11:32;4.60;99.90
37530;DHT22;23374;52.758;6.872;2024-02-26T07:13:53;4.60;99.90
37530;DHT22;23374;52.758;6.872;2024-02-26T07:16:13;4.50;99.90
37530;DHT22;23374;52.758;6.872;2024-02-26T07:18:33;4.60;99.90
37530;DHT22;23374;52.758;6.872;2024-02-26T07:20:54;4.50;99.90
37530;DHT22;23374;52.758;6.872;2024-02-26T07:23:15;4.60;99.90
37530;DHT22;23374;52.758;6.872;2024-02-26T07:25:35;4.60;99.90
37530;DHT22;23374;52.758;6.872;2024-02-26T07:27:55;4.60;99.90
37530;DHT22;23374;52.758;6.872;2024-02-26T07:30:16;4.60;99.90
37530;DHT22;23374;52.758;6.872;2024-02-26T07:32:37;4.70;99.90
37530;DHT22;23374;52.758;6.872;2024-02-26T07:34:57;4.70;99.90
37530;DHT22;23374;52.758;6.872;2024-02-26T07:37:17;4.70;99.90
37530;DHT22;23374;52.758;6.872;2024-02-26T07:39:38;4.70;99.90
37530;DHT22;23374;52.758;6.872;2024-02-26T07:41:58;4.70;99.90
37530;DHT22;23374;52.758;6.872;2024-02-26T07:44:19;4.70;99.90
37530;DHT22;23374;52.758;6.872;2024-02-26T07:46:39;4.70;99.90
37530;DHT22;23374;52.758;6.872;2024-02-26T07:49:00;4.70;99.90
37530;DHT22;23374;52.758;6.872;2024-02-26T07:51:20;4.70;99.90
37530;DHT22;23374;52.758;6.872;2024-02-26T07:53:40;4.70;28.30
37530;DHT22;23374;52.758;6.872;2024-02-26T07:56:01;4.70;27.20
37530;DHT22;23374;52.758;6.872;2024-02-26T07:58:23;4.70;15.00
37530;DHT22;23374;52.758;6.872;2024-02-26T08:00:43;4.70;1.00
37530;DHT22;23374;52.758;6.872;2024-02-26T08:03:06;4.70;1.00
37530;DHT22;23374;52.758;6.872;2024-02-26T08:05:26;4.70;1.00
37530;DHT22;23374;52.758;6.872;2024-02-26T08:07:46;4.70;1.00
37530;DHT22;23374;52.758;6.872;2024-02-26T08:10:08;4.80;1.00
37530;DHT22;23374;52.758;6.872;2024-02-26T08:12:28;4.80;1.00
37530;DHT22;23374;52.758;6.872;2024-02-26T08:14:49;4.80;1.00
37530;DHT22;23374;52.758;6.872;2024-02-26T08:17:10;4.80;1.00
37530;DHT22;23374;52.758;6.872;2024-02-26T08:19:30;4.80;1.00
37530;DHT22;23374;52.758;6.872;2024-02-26T08:21:51;4.80;1.00
37530;DHT22;23374;52.758;6.872;2024-02-26T08:24:11;4.80;1.00
37530;DHT22;23374;52.758;6.872;2024-02-26T08:26:32;4.90;1.00
37530;DHT22;23374;52.758;6.872;2024-02-26T08:28:53;4.90;1.00
37530;DHT22;23374;52.758;6.872;2024-02-26T08:31:15;4.90;1.00
37530;DHT22;23374;52.758;6.872;2024-02-26T08:33:36;4.90;1.00
37530;DHT22;23374;52.758;6.872;2024-02-26T08:35:57;5.00;99.90
37530;DHT22;23374;52.758;6.872;2024-02-26T08:38:18;5.00;99.90
37530;DHT22;23374;52.758;6.872;2024-02-26T08:40:38;5.00;99.90
37530;DHT22;23374;52.758;6.872;2024-02-26T08:42:58;5.00;99.90
37530;DHT22;23374;52.758;6.872;2024-02-26T08:45:19;5.00;99.90
37530;DHT22;23374;52.758;6.872;2024-02-26T08:47:39;5.00;99.90
37530;DHT22;23374;52.758;6.872;2024-02-26T08:49:59;5.00;99.90
37530;DHT22;23374;52.758;6.872;2024-02-26T08:52:20;5.00;99.90
37530;DHT22;23374;52.758;6.872;2024-02-26T08:54:41;5.00;99.90
37530;DHT22;23374;52.758;6.872;2024-02-26T08:57:02;5.00;99.90
37530;DHT22;23374;52.758;6.872;2024-02-26T08:59:23;5.00;99.90
37530;DHT22;23374;52.758;6.872;2024-02-26T09:01:43;5.00;99.90
37530;DHT22;23374;52.758;6.872;2024-02-26T09:04:03;5.00;99.90
37530;DHT22;23374;52.758;6.872;2024-02-26T09:06:24;5.00;78.40
37530;DHT22;23374;52.758;6.872;2024-02-26T09:08:44;5.00;94.80
37530;DHT22;23374;52.758;6.872;2024-02-26T09:11:04;5.00;40.90
37530;DHT22;23374;52.758;6.872;2024-02-26T09:13:25;5.10;1.00
37530;DHT22;23374;52.758;6.872;2024-02-26T09:15:45;5.10;1.00
37530;DHT22;23374;52.758;6.872;2024-02-26T09:18:06;5.10;1.00
37530;DHT22;23374;52.758;6.872;2024-02-26T09:20:26;5.10;1.00
37530;DHT22;23374;52.758;6.872;2024-02-26T09:22:47;5.10;1.00
37530;DHT22;23374;52.758;6.872;2024-02-26T09:25:08;5.10;1.00
37530;DHT22;23374;52.758;6.872;2024-02-26T09:27:28;5.10;1.00
37530;DHT22;23374;52.758;6.872;2024-02-26T09:29:50;5.10;1.00
37530;DHT22;23374;52.758;6.872;2024-02-26T09:32:11;5.10;1.00
37530;DHT22;23374;52.758;6.872;2024-02-26T09:34:31;5.10;1.00
37530;DHT22;23374;52.758;6.872;2024-02-26T09:36:52;5.10;1.00
37530;DHT22;23374;52.758;6.872;2024-02-26T09:39:12;5.10;1.00
37530;DHT22;23374;52.758;6.872;2024-02-26T09:41:34;5.10;1.00
37530;DHT22;23374;52.758;6.872;2024-02-26T09:43:57;5.10;1.00
37530;DHT22;23374;52.758;6.872;2024-02-26T09:46:17;5.20;1.00
37530;DHT22;23374;52.758;6.872;2024-02-26T09:48:42;5.20;1.00
37530;DHT22;23374;52.758;6.872;2024-02-26T09:51:03;5.20;99.90
37530;DHT22;23374;52.758;6.872;2024-02-26T09:53:24;5.20;99.90
37530;DHT22;23374;52.758;6.872;2024-02-26T09:55:44;5.30;99.90
37530;DHT22;23374;52.758;6.872;2024-02-26T09:58:05;5.30;99.90
37530;DHT22;23374;52.758;6.872;2024-02-26T10:00:31;5.30;99.90
37530;DHT22;23374;52.758;6.872;2024-02-26T10:02:55;5.30;99.90
37530;DHT22;23374;52.758;6.872;2024-02-26T10:05:18;5.30;99.90
37530;DHT22;23374;52.758;6.872;2024-02-26T10:07:44;5.40;99.90
37530;DHT22;23374;52.758;6.872;2024-02-26T10:10:05;5.40;99.90
37530;DHT22;23374;52.758;6.872;2024-02-26T10:12:26;5.40;99.90
37530;DHT22;23374;52.758;6.872;2024-02-26T10:14:48;5.40;99.90
37530;DHT22;23374;52.758;6.872;2024-02-26T10:17:10;5.40;99.90
37530;DHT22;23374;52.758;6.872;2024-02-26T10:19:31;5.40;99.90
37530;DHT22;23374;52.758;6.872;2024-02-26T10:21:58;5.50;99.90
37530;DHT22;23374;52.758;6.872;2024-02-26T10:24:18;5.50;99.90
37530;DHT22;23374;52.758;6.872;2024-02-26T10:26:46;5.50;99.90
37530;DHT22;23374;52.758;6.872;2024-02-26T10:29:09;5.60;99.90
37530;DHT22;23374;52.758;6.872;2024-02-26T10:31:29;5.60;99.90
37530;DHT22;23374;52.758;6.872;2024-02-26T10:33:50;5.60;99.90
37530;DHT22;23374;52.758;6.872;2024-02-26T10:36:15;5.60;99.90
37530;DHT22;23374;52.758;6.872;2024-02-26T10:38:37;5.70;99.90
37530;DHT22;23374;52.758;6.872;2024-02-26T10:40:58;5.70;99.90
37530;DHT22;23374;52.758;6.872;2024-02-26T10:43:19;5.70;99.90
37530;DHT22;23374;52.758;6.872;2024-02-26T10:45:39;5.70;99.90
37530;DHT22;23374;52.758;6.872;2024-02-26T10:48:01;5.80;99.90
37530;DHT22;23374;52.758;6.872;2024-02-26T10:50:22;5.80;99.90
37530;DHT22;23374;52.758;6.872;2024-02-26T10:52:43;5.80;99.90
37530;DHT22;23374;52.758;6.872;2024-02-26T10:55:05;5.80;99.90
37530;DHT22;23374;52.758;6.872;2024-02-26T10:57:38;5.80;99.90
37530;DHT22;23374;52.758;6.872;2024-02-26T11:00:01;5.80;99.90
37530;DHT22;23374;52.758;6.872;2024-02-26T11:02:24;5.80;99.90
37530;DHT22;23374;52.758;6.872;2024-02-26T11:04:45;5.90;99.90
37530;DHT22;23374;52.758;6.872;2024-02-26T11:07:06;5.80;99.90
37530;DHT22;23374;52.758;6.872;2024-02-26T11:09:28;5.90;99.90
37530;DHT22;23374;52.758;6.872;2024-02-26T11:11:50;5.90;99.90
37530;DHT22;23374;52.758;6.872;2024-02-26T11:14:15;5.90;99.90
37530;DHT22;23374;52.758;6.872;2024-02-26T11:16:35;5.90;99.90
37530;DHT22;23374;52.758;6.872;2024-02-26T11:18:58;5.90;99.90
37530;DHT22;23374;52.758;6.872;2024-02-26T11:21:22;6.00;99.90
37530;DHT22;23374;52.758;6.872;2024-02-26T11:23:58;6.00;99.90
37530;DHT22;23374;52.758;6.872;2024-02-26T11:26:20;6.10;99.90
37530;DHT22;23374;52.758;6.872;2024-02-26T11:28:41;6.10;71.10
37530;DHT22;23374;52.758;6.872;2024-02-26T11:31:03;6.20;99.90
37530;DHT22;23374;52.758;6.872;2024-02-26T11:33:24;6.30;12.50
37530;DHT22;23374;52.758;6.872;2024-02-26T11:35:46;6.30;48.60
37530;DHT22;23374;52.758;6.872;2024-02-26T11:38:06;6.30;4.20
37530;DHT22;23374;52.758;6.872;2024-02-26T11:40:27;6.40;39.90
37530;DHT22;23374;52.758;6.872;2024-02-26T11:42:48;6.40;1.00
37530;DHT22;23374;52.758;6.872;2024-02-26T11:48:42;6.30;1.00
37530;DHT22;23374;52.758;6.872;2024-02-26T11:51:05;6.30;1.00
37530;DHT22;23374;52.758;6.872;2024-02-26T11:53:31;6.40;1.00
37530;DHT22;23374;52.758;6.872;2024-02-26T11:56:23;6.40;1.00
37530;DHT22;23374;52.758;6.872;2024-02-26T11:58:45;6.40;1.00
37530;DHT22;23374;52.758;6.872;2024-02-26T12:01:35;6.40;1.00
37530;DHT22;23374;52.758;6.872;2024-02-26T12:03:56;6.40;1.00
37530;DHT22;23374;52.758;6.872;2024-02-26T12:06:18;6.40;1.00
37530;DHT22;23374;52.758;6.872;2024-02-26T12:08:39;6.50;1.00
37530;DHT22;23374;52.758;6.872;2024-02-26T12:11:00;6.50;1.00
37530;DHT22;23374;52.758;6.872;2024-02-26T12:13:30;6.40;1.00
37530;DHT22;23374;52.758;6.872;2024-02-26T12:15:57;6.50;1.00
37530;DHT22;23374;52.758;6.872;2024-02-26T12:18:19;6.50;1.00
37530;DHT22;23374;52.758;6.872;2024-02-26T12:20:40;6.50;1.00
37530;DHT22;23374;52.758;6.872;2024-02-26T12:23:03;6.50;1.00
37530;DHT22;23374;52.758;6.872;2024-02-26T12:25:27;6.50;1.00
37530;DHT22;23374;52.758;6.872;2024-02-26T12:27:48;6.50;1.00
37530;DHT22;23374;52.758;6.872;2024-02-26T12:30:10;6.50;1.00
37530;DHT22;23374;52.758;6.872;2024-02-26T12:32:30;6.40;1.00
37530;DHT22;23374;52.758;6.872;2024-02-26T12:34:51;6.50;1.00
37530;DHT22;23374;52.758;6.872;2024-02-26T12:37:11;6.50;1.00
37530;DHT22;23374;52.758;6.872;2024-02-26T12:39:32;6.50;1.00
37530;DHT22;23374;52.758;6.872;2024-02-26T12:41:52;6.50;1.00
37530;DHT22;23374;52.758;6.872;2024-02-26T12:44:12;6.50;1.00
37530;DHT22;23374;52.758;6.872;2024-02-26T12:46:33;6.40;1.00
37530;DHT22;23374;52.758;6.872;2024-02-26T12:48:58;6.40;1.00
37530;DHT22;23374;52.758;6.872;2024-02-26T12:51:19;6.40;1.00
37530;DHT22;23374;52.758;6.872;2024-02-26T12:53:39;6.50;1.00
37530;DHT22;23374;52.758;6.872;2024-02-26T12:56:00;6.50;1.00
37530;DHT22;23374;52.758;6.872;2024-02-26T12:58:21;6.50;1.00
37530;DHT22;23374;52.758;6.872;2024-02-26T13:00:45;6.40;1.00
37530;DHT22;23374;52.758;6.872;2024-02-26T13:03:06;6.50;1.00
37530;DHT22;23374;52.758;6.872;2024-02-26T13:05:27;6.50;1.00
37530;DHT22;23374;52.758;6.872;2024-02-26T13:07:48;6.50;1.00
37530;DHT22;23374;52.758;6.872;2024-02-26T13:10:09;6.50;1.00
37530;DHT22;23374;52.758;6.872;2024-02-26T13:12:32;6.50;1.00
37530;DHT22;23374;52.758;6.872;2024-02-26T13:15:03;6.50;1.00
37530;DHT22;23374;52.758;6.872;2024-02-26T13:17:23;6.50;1.00
37530;DHT22;23374;52.758;6.872;2024-02-26T13:19:51;6.60;1.00
37530;DHT22;23374;52.758;6.872;2024-02-26T13:22:11;6.60;1.00
37530;DHT22;23374;52.758;6.872;2024-02-26T13:24:34;6.60;1.00
37530;DHT22;23374;52.758;6.872;2024-02-26T13:26:55;6.60;1.00
37530;DHT22;23374;52.758;6.872;2024-02-26T13:29:19;6.60;1.00
37530;DHT22;23374;52.758;6.872;2024-02-26T13:31:40;6.60;1.00
37530;DHT22;23374;52.758;6.872;2024-02-26T13:34:01;6.60;1.00
37530;DHT22;23374;52.758;6.872;2024-02-26T13:36:24;6.60;1.00
37530;DHT22;23374;52.758;6.872;2024-02-26T13:38:53;6.60;1.00
37530;DHT22;23374;52.758;6.872;2024-02-26T13:41:14;6.60;1.00
37530;DHT22;23374;52.758;6.872;2024-02-26T13:43:35;6.60;1.00
37530;DHT22;23374;52.758;6.872;2024-02-26T13:45:55;6.60;1.00
37530;DHT22;23374;52.758;6.872;2024-02-26T13:48:16;6.70;1.00
37530;DHT22;23374;52.758;6.872;2024-02-26T13:50:38;6.70;1.00
37530;DHT22;23374;52.758;6.872;2024-02-26T13:52:59;6.60;1.00
37530;DHT22;23374;52.758;6.872;2024-02-26T13:55:19;6.60;1.00
37530;DHT22;23374;52.758;6.872;2024-02-26T13:57:40;6.60;1.00
37530;DHT22;23374;52.758;6.872;2024-02-26T14:00:01;6.60;1.00
37530;DHT22;23374;52.758;6.872;2024-02-26T14:02:21;6.50;1.00
37530;DHT22;23374;52.758;6.872;2024-02-26T14:04:41;6.50;1.00
37530;DHT22;23374;52.758;6.872;2024-02-26T14:07:02;6.60;1.00
37530;DHT22;23374;52.758;6.872;2024-02-26T14:09:23;6.50;1.00
37530;DHT22;23374;52.758;6.872;2024-02-26T14:11:45;6.50;1.00
37530;DHT22;23374;52.758;6.872;2024-02-26T14:14:05;6.50;1.00
37530;DHT22;23374;52.758;6.872;2024-02-26T14:16:25;6.50;1.00
37530;DHT22;23374;52.758;6.872;2024-02-26T14:18:46;6.50;1.00
37530;DHT22;23374;52.758;6.872;2024-02-26T14:21:07;6.50;1.00
37530;DHT22;23374;52.758;6.872;2024-02-26T14:23:27;6.50;1.00
37530;DHT22;23374;52.758;6.872;2024-02-26T14:25:48;6.40;1.00
37530;DHT22;23374;52.758;6.872;2024-02-26T14:28:08;6.50;28.80
37530;DHT22;23374;52.758;6.872;2024-02-26T14:30:29;6.50;53.10
37530;DHT22;23374;52.758;6.872;2024-02-26T14:32:49;6.40;71.50
37530;DHT22;23374;52.758;6.872;2024-02-26T14:35:10;6.40;71.10
37530;DHT22;23374;52.758;6.872;2024-02-26T14:37:30;6.40;49.50
37530;DHT22;23374;52.758;6.872;2024-02-26T14:39:50;6.40;1.00
37530;DHT22;23374;52.758;6.872;2024-02-26T14:42:12;6.40;2.80
37530;DHT22;23374;52.758;6.872;2024-02-26T14:44:32;6.30;1.00
37530;DHT22;23374;52.758;6.872;2024-02-26T14:46:53;6.40;66.80
37530;DHT22;23374;52.758;6.872;2024-02-26T14:49:13;6.30;2.40
37530;DHT22;23374;52.758;6.872;2024-02-26T14:51:34;6.30;1.00
37530;DHT22;23374;52.758;6.872;2024-02-26T14:53:54;6.30;1.00
37530;DHT22;23374;52.758;6.872;2024-02-26T14:56:15;6.20;1.00
37530;DHT22;23374;52.758;6.872;2024-02-26T14:58:35;6.20;1.00
37530;DHT22;23374;52.758;6.872;2024-02-26T15:00:55;6.30;1.00
37530;DHT22;23374;52.758;6.872;2024-02-26T15:03:15;6.20;1.00
37530;DHT22;23374;52.758;6.872;2024-02-26T15:05:37;6.30;1.00
37530;DHT22;23374;52.758;6.872;2024-02-26T15:07:57;6.20;1.00
37530;DHT22;23374;52.758;6.872;2024-02-26T15:10:19;6.20;1.00
37530;DHT22;23374;52.758;6.872;2024-02-26T15:12:39;6.20;1.00
37530;DHT22;23374;52.758;6.872;2024-02-26T15:15:00;6.20;8.10
37530;DHT22;23374;52.758;6.872;2024-02-26T15:17:20;6.10;1.00
37530;DHT22;23374;52.758;6.872;2024-02-26T15:19:40;6.20;6.00
37530;DHT22;23374;52.758;6.872;2024-02-26T15:22:01;6.10;1.00
37530;DHT22;23374;52.758;6.872;2024-02-26T15:24:22;6.10;1.00